sensor_id;sensor_type;location;lat;lon;timestamp;pressure;altitude;pressure_sealevel;temperature;humidity
19005;BME280;9635;52.078;8.648;2023-12-22T00:01:24;98474.47;;;3.59;75.32
19005;BME280;9635;52.078;8.648;2023-12-22T00:06:27;98448.13;;;3.67;74.87
19005;BME280;9635;52.078;8.648;2023-12-22T00:11:32;98457.59;;;3.81;74.76
19005;BME280;9635;52.078;8.648;2023-12-22T00:16:36;98461.28;;;3.69;76.28
19005;BME280;9635;52.078;8.648;2023-12-22T00:21:39;98470.97;;;3.91;76.53
19005;BME280;9635;52.078;8.648;2023-12-22T00:26:44;98462.69;;;3.52;82.88
19005;BME280;9635;52.078;8.648;2023-12-22T00:31:47;98541.75;;;3.48;96.65
19005;BME280;9635;52.078;8.648;2023-12-22T00:36:51;98529.13;;;1.80;100.00
19005;BME280;9635;52.078;8.648;2023-12-22T00:41:56;98531.75;;;1.56;100.00
19005;BME280;9635;52.078;8.648;2023-12-22T00:46:59;98550.13;;;1.46;100.00
19005;BME280;9635;52.078;8.648;2023-12-22T00:52:02;98543.09;;;1.82;100.00
19005;BME280;9635;52.078;8.648;2023-12-22T00:57:06;98554.00;;;1.78;100.00
19005;BME280;9635;52.078;8.648;2023-12-22T01:02:09;98541.47;;;1.68;100.00
19005;BME280;9635;52.078;8.648;2023-12-22T01:07:12;98535.25;;;2.16;100.00
19005;BME280;9635;52.078;8.648;2023-12-22T01:12:17;98544.28;;;2.13;100.00
19005;BME280;9635;52.078;8.648;2023-12-22T01:17:20;98584.56;;;2.99;100.00
19005;BME280;9635;52.078;8.648;2023-12-22T01:22:23;98572.31;;;2.40;100.00
19005;BME280;9635;52.078;8.648;2023-12-22T01:27:27;98609.25;;;1.09;100.00
19005;BME280;9635;52.078;8.648;2023-12-22T01:32:31;98608.41;;;1.08;100.00
19005;BME280;9635;52.078;8.648;2023-12-22T01:37:37;98575.31;;;1.02;100.00
19005;BME280;9635;52.078;8.648;2023-12-22T01:42:41;98560.13;;;0.80;100.00
19005;BME280;9635;52.078;8.648;2023-12-22T01:47:45;98558.31;;;0.55;100.00
19005;BME280;9635;52.078;8.648;2023-12-22T01:52:49;98555.75;;;0.79;100.00
19005;BME280;9635;52.078;8.648;2023-12-22T01:57:55;98582.00;;;0.82;100.00
19005;BME280;9635;52.078;8.648;2023-12-22T02:02:58;98602.50;;;1.04;100.00
19005;BME280;9635;52.078;8.648;2023-12-22T02:08:01;98606.06;;;1.16;100.00
19005;BME280;9635;52.078;8.648;2023-12-22T02:13:06;98597.84;;;1.82;100.00
19005;BME280;9635;52.078;8.648;2023-12-22T02:18:14;98590.19;;;1.90;100.00
19005;BME280;9635;52.078;8.648;2023-12-22T02:23:19;98591.69;;;2.40;100.00
19005;BME280;9635;52.078;8.648;2023-12-22T02:28:23;98598.88;;;2.27;100.00
19005;BME280;9635;52.078;8.648;2023-12-22T02:33:28;98644.97;;;2.95;100.00
19005;BME280;9635;52.078;8.648;2023-12-22T02:38:34;98640.69;;;2.35;100.00
19005;BME280;9635;52.078;8.648;2023-12-22T02:43:37;98672.03;;;1.56;100.00
19005;BME280;9635;52.078;8.648;2023-12-22T02:48:41;98664.97;;;1.44;100.00
19005;BME280;9635;52.078;8.648;2023-12-22T02:53:45;98628.84;;;1.56;100.00
19005;BME280;9635;52.078;8.648;2023-12-22T02:58:48;98616.50;;;1.43;100.00
19005;BME280;9635;52.078;8.648;2023-12-22T03:03:51;98609.88;;;1.12;100.00
19005;BME280;9635;52.078;8.648;2023-12-22T03:08:56;98604.66;;;1.23;100.00
19005;BME280;9635;52.078;8.648;2023-12-22T03:13:59;98604.56;;;1.38;100.00
19005;BME280;9635;52.078;8.648;2023-12-22T03:19:03;98611.06;;;1.58;100.00
19005;BME280;9635;52.078;8.648;2023-12-22T03:24:07;98577.16;;;1.63;100.00
19005;BME280;9635;52.078;8.648;2023-12-22T03:29:10;98592.38;;;1.72;100.00
19005;BME280;9635;52.078;8.648;2023-12-22T03:34:13;98591.06;;;2.02;100.00
19005;BME280;9635;52.078;8.648;2023-12-22T03:39:18;98594.78;;;1.99;100.00
19005;BME280;9635;52.078;8.648;2023-12-22T03:44:21;98575.53;;;2.32;100.00
19005;BME280;9635;52.078;8.648;2023-12-22T03:49:27;98570.94;;;2.23;100.00
19005;BME280;9635;52.078;8.648;2023-12-22T03:54:31;98575.53;;;2.68;100.00
19005;BME280;9635;52.078;8.648;2023-12-22T03:59:34;98577.88;;;2.48;100.00
19005;BME280;9635;52.078;8.648;2023-12-22T04:04:38;98589.53;;;2.92;100.00
19005;BME280;9635;52.078;8.648;2023-12-22T04:09:42;98590.50;;;2.45;100.00
19005;BME280;9635;52.078;8.648;2023-12-22T04:14:45;98590.09;;;2.27;100.00
19005;BME280;9635;52.078;8.648;2023-12-22T04:19:48;98606.88;;;2.03;100.00
19005;BME280;9635;52.078;8.648;2023-12-22T04:24:53;98605.38;;;2.23;100.00
19005;BME280;9635;52.078;8.648;2023-12-22T04:29:57;98610.28;;;2.52;100.00
19005;BME280;9635;52.078;8.648;2023-12-22T04:35:00;98610.44;;;2.26;100.00
19005;BME280;9635;52.078;8.648;2023-12-22T04:40:05;98590.19;;;2.60;100.00
19005;BME280;9635;52.078;8.648;2023-12-22T04:45:09;98584.28;;;2.57;100.00
19005;BME280;9635;52.078;8.648;2023-12-22T04:50:12;98586.72;;;2.71;100.00
19005;BME280;9635;52.078;8.648;2023-12-22T04:55:17;98593.97;;;2.69;100.00
19005;BME280;9635;52.078;8.648;2023-12-22T05:00:20;98607.09;;;2.71;100.00
19005;BME280;9635;52.078;8.648;2023-12-22T05:05:23;98617.97;;;2.90;100.00
19005;BME280;9635;52.078;8.648;2023-12-22T05:10:29;98605.34;;;2.47;100.00
19005;BME280;9635;52.078;8.648;2023-12-22T05:15:32;98620.06;;;2.27;100.00
19005;BME280;9635;52.078;8.648;2023-12-22T05:20:35;98613.72;;;2.65;100.00
19005;BME280;9635;52.078;8.648;2023-12-22T05:25:39;98601.03;;;2.57;100.00
19005;BME280;9635;52.078;8.648;2023-12-22T05:30:43;98593.00;;;2.70;100.00
19005;BME280;9635;52.078;8.648;2023-12-22T05:35:46;98641.34;;;2.14;100.00
19005;BME280;9635;52.078;8.648;2023-12-22T05:40:50;98626.00;;;1.83;100.00
19005;BME280;9635;52.078;8.648;2023-12-22T05:45:53;98643.44;;;1.61;100.00
19005;BME280;9635;52.078;8.648;2023-12-22T05:50:56;98621.41;;;1.61;100.00
19005;BME280;9635;52.078;8.648;2023-12-22T05:56:03;98606.94;;;1.54;100.00
19005;BME280;9635;52.078;8.648;2023-12-22T06:01:06;98632.28;;;1.69;100.00
19005;BME280;9635;52.078;8.648;2023-12-22T06:06:10;98626.91;;;1.94;100.00
19005;BME280;9635;52.078;8.648;2023-12-22T06:11:16;98633.63;;;2.11;100.00
19005;BME280;9635;52.078;8.648;2023-12-22T06:16:19;98649.34;;;2.02;100.00
19005;BME280;9635;52.078;8.648;2023-12-22T06:21:22;98652.94;;;2.25;100.00
19005;BME280;9635;52.078;8.648;2023-12-22T06:26:28;98636.59;;;2.31;100.00
19005;BME280;9635;52.078;8.648;2023-12-22T06:31:30;98681.84;;;2.52;100.00
19005;BME280;9635;52.078;8.648;2023-12-22T06:36:33;98683.78;;;2.50;100.00
19005;BME280;9635;52.078;8.648;2023-12-22T06:41:38;98710.66;;;2.80;100.00
19005;BME280;9635;52.078;8.648;2023-12-22T06:46:41;98695.47;;;2.82;100.00
19005;BME280;9635;52.078;8.648;2023-12-22T06:51:44;98699.81;;;2.83;100.00
19005;BME280;9635;52.078;8.648;2023-12-22T06:56:50;98720.50;;;3.02;100.00
19005;BME280;9635;52.078;8.648;2023-12-22T07:01:53;98705.88;;;2.86;100.00
19005;BME280;9635;52.078;8.648;2023-12-22T07:07:13;98720.97;;;2.96;100.00
19005;BME280;9635;52.078;8.648;2023-12-22T07:12:17;98723.63;;;2.96;100.00
19005;BME280;9635;52.078;8.648;2023-12-22T07:17:22;98737.88;;;3.18;99.57
19005;BME280;9635;52.078;8.648;2023-12-22T07:22:25;98748.75;;;3.26;99.08
19005;BME280;9635;52.078;8.648;2023-12-22T07:27:30;98734.28;;;3.30;99.29
19005;BME280;9635;52.078;8.648;2023-12-22T07:32:33;98746.59;;;3.54;99.89
19005;BME280;9635;52.078;8.648;2023-12-22T07:37:36;98759.28;;;3.61;100.00
19005;BME280;9635;52.078;8.648;2023-12-22T07:42:41;98761.84;;;3.63;100.00
19005;BME280;9635;52.078;8.648;2023-12-22T07:47:44;98761.44;;;3.45;99.43
19005;BME280;9635;52.078;8.648;2023-12-22T07:52:48;98784.09;;;3.26;99.42
19005;BME280;9635;52.078;8.648;2023-12-22T07:57:53;98778.84;;;3.60;97.41
19005;BME280;9635;52.078;8.648;2023-12-22T08:02:56;98785.00;;;3.72;97.50
19005;BME280;9635;52.078;8.648;2023-12-22T08:07:59;98791.13;;;3.50;98.09
19005;BME280;9635;52.078;8.648;2023-12-22T08:13:04;98794.78;;;3.71;96.72
19005;BME280;9635;52.078;8.648;2023-12-22T08:18:07;98805.31;;;3.73;97.51
19005;BME280;9635;52.078;8.648;2023-12-22T08:23:10;98807.31;;;3.58;97.60
19005;BME280;9635;52.078;8.648;2023-12-22T08:28:16;98799.63;;;3.89;96.51
19005;BME280;9635;52.078;8.648;2023-12-22T08:33:19;98805.06;;;3.87;96.06
19005;BME280;9635;52.078;8.648;2023-12-22T08:38:22;98810.63;;;3.95;95.21
19005;BME280;9635;52.078;8.648;2023-12-22T08:43:26;98818.22;;;3.78;96.24
19005;BME280;9635;52.078;8.648;2023-12-22T08:48:29;98824.25;;;3.80;98.98
19005;BME280;9635;52.078;8.648;2023-12-22T08:53:33;98805.31;;;3.84;99.12
19005;BME280;9635;52.078;8.648;2023-12-22T08:58:40;98845.03;;;4.42;96.65
19005;BME280;9635;52.078;8.648;2023-12-22T09:03:44;98826.06;;;4.24;95.32
19005;BME280;9635;52.078;8.648;2023-12-22T09:08:48;98808.06;;;4.39;95.09
19005;BME280;9635;52.078;8.648;2023-12-22T09:13:53;98818.94;;;4.25;97.04
19005;BME280;9635;52.078;8.648;2023-12-22T09:18:56;98809.53;;;4.75;95.20
19005;BME280;9635;52.078;8.648;2023-12-22T09:23:59;98815.06;;;4.29;98.10
19005;BME280;9635;52.078;8.648;2023-12-22T09:29:04;98817.81;;;4.50;97.53
19005;BME280;9635;52.078;8.648;2023-12-22T09:34:07;98828.84;;;4.34;99.44
19005;BME280;9635;52.078;8.648;2023-12-22T09:39:10;98834.53;;;4.18;100.00
19005;BME280;9635;52.078;8.648;2023-12-22T09:44:20;98823.88;;;4.40;99.49
19005;BME280;9635;52.078;8.648;2023-12-22T09:49:24;98816.91;;;4.28;100.00
19005;BME280;9635;52.078;8.648;2023-12-22T09:54:27;98838.22;;;4.49;100.00
19005;BME280;9635;52.078;8.648;2023-12-22T09:59:32;98803.22;;;4.22;100.00
19005;BME280;9635;52.078;8.648;2023-12-22T10:04:36;98805.88;;;4.33;100.00
19005;BME280;9635;52.078;8.648;2023-12-22T10:09:39;98779.75;;;4.49;100.00
19005;BME280;9635;52.078;8.648;2023-12-22T10:14:45;98785.69;;;4.30;100.00
19005;BME280;9635;52.078;8.648;2023-12-22T10:19:49;98773.66;;;4.15;100.00
19005;BME280;9635;52.078;8.648;2023-12-22T10:24:52;98762.63;;;4.42;100.00
19005;BME280;9635;52.078;8.648;2023-12-22T10:29:56;98757.81;;;4.13;100.00
19005;BME280;9635;52.078;8.648;2023-12-22T10:34:59;98762.97;;;4.37;100.00
19005;BME280;9635;52.078;8.648;2023-12-22T10:40:04;98754.81;;;4.07;100.00
19005;BME280;9635;52.078;8.648;2023-12-22T10:45:09;98762.19;;;4.69;100.00
19005;BME280;9635;52.078;8.648;2023-12-22T10:50:12;98744.63;;;4.34;100.00
19005;BME280;9635;52.078;8.648;2023-12-22T10:55:16;98749.34;;;4.31;100.00
19005;BME280;9635;52.078;8.648;2023-12-22T11:00:22;98729.00;;;4.41;100.00
19005;BME280;9635;52.078;8.648;2023-12-22T11:05:26;98750.75;;;4.46;100.00
19005;BME280;9635;52.078;8.648;2023-12-22T11:10:31;98727.19;;;4.74;100.00
19005;BME280;9635;52.078;8.648;2023-12-22T11:15:37;98720.88;;;4.54;100.00
19005;BME280;9635;52.078;8.648;2023-12-22T11:20:42;98724.69;;;4.72;100.00
19005;BME280;9635;52.078;8.648;2023-12-22T11:25:48;98718.22;;;4.54;100.00
19005;BME280;9635;52.078;8.648;2023-12-22T11:30:54;98704.91;;;4.86;100.00
19005;BME280;9635;52.078;8.648;2023-12-22T11:36:00;98702.94;;;4.67;100.00
19005;BME280;9635;52.078;8.648;2023-12-22T11:41:04;98717.28;;;4.44;100.00
19005;BME280;9635;52.078;8.648;2023-12-22T11:46:10;98704.63;;;4.68;100.00
19005;BME280;9635;52.078;8.648;2023-12-22T11:51:13;98718.09;;;4.55;100.00
19005;BME280;9635;52.078;8.648;2023-12-22T11:56:16;98713.00;;;4.64;100.00
19005;BME280;9635;52.078;8.648;2023-12-22T12:01:24;98691.19;;;4.70;100.00
19005;BME280;9635;52.078;8.648;2023-12-22T12:06:31;98695.78;;;4.35;100.00
19005;BME280;9635;52.078;8.648;2023-12-22T12:12:11;98703.31;;;4.62;100.00
19005;BME280;9635;52.078;8.648;2023-12-22T12:17:16;98690.38;;;4.58;100.00
19005;BME280;9635;52.078;8.648;2023-12-22T12:22:21;98675.19;;;4.81;100.00
19005;BME280;9635;52.078;8.648;2023-12-22T12:27:26;98660.75;;;4.62;100.00
19005;BME280;9635;52.078;8.648;2023-12-22T12:32:31;98688.31;;;4.29;100.00
19005;BME280;9635;52.078;8.648;2023-12-22T12:37:36;98682.75;;;4.65;100.00
19005;BME280;9635;52.078;8.648;2023-12-22T12:42:39;98671.72;;;4.48;100.00
19005;BME280;9635;52.078;8.648;2023-12-22T12:47:44;98677.25;;;4.77;100.00
19005;BME280;9635;52.078;8.648;2023-12-22T12:52:47;98675.50;;;4.67;100.00
19005;BME280;9635;52.078;8.648;2023-12-22T12:57:52;98663.94;;;4.56;100.00
19005;BME280;9635;52.078;8.648;2023-12-22T13:02:59;98668.56;;;4.75;100.00
19005;BME280;9635;52.078;8.648;2023-12-22T13:08:08;98679.63;;;4.59;100.00
19005;BME280;9635;52.078;8.648;2023-12-22T13:13:12;98653.75;;;4.61;100.00
19005;BME280;9635;52.078;8.648;2023-12-22T13:18:16;98655.50;;;4.51;100.00
19005;BME280;9635;52.078;8.648;2023-12-22T13:23:20;98677.97;;;4.79;100.00
19005;BME280;9635;52.078;8.648;2023-12-22T13:28:26;98687.41;;;4.51;100.00
19005;BME280;9635;52.078;8.648;2023-12-22T13:33:34;98694.50;;;4.62;100.00
19005;BME280;9635;52.078;8.648;2023-12-22T13:38:38;98671.25;;;4.43;100.00
19005;BME280;9635;52.078;8.648;2023-12-22T13:43:41;98662.84;;;4.59;100.00
19005;BME280;9635;52.078;8.648;2023-12-22T13:48:47;98681.53;;;4.90;100.00
19005;BME280;9635;52.078;8.648;2023-12-22T13:53:50;98677.56;;;4.63;100.00
19005;BME280;9635;52.078;8.648;2023-12-22T13:58:53;98663.16;;;4.66;100.00
19005;BME280;9635;52.078;8.648;2023-12-22T14:03:58;98662.94;;;4.57;100.00
19005;BME280;9635;52.078;8.648;2023-12-22T14:09:01;98666.84;;;4.21;100.00
19005;BME280;9635;52.078;8.648;2023-12-22T14:14:04;98680.09;;;3.89;100.00
19005;BME280;9635;52.078;8.648;2023-12-22T14:19:08;98661.97;;;4.37;100.00
19005;BME280;9635;52.078;8.648;2023-12-22T14:24:11;98664.22;;;4.10;100.00
19005;BME280;9635;52.078;8.648;2023-12-22T14:29:14;98637.25;;;4.26;100.00
19005;BME280;9635;52.078;8.648;2023-12-22T14:34:18;98637.06;;;4.06;100.00
19005;BME280;9635;52.078;8.648;2023-12-22T14:39:21;98637.94;;;4.28;100.00
19005;BME280;9635;52.078;8.648;2023-12-22T14:44:24;98666.78;;;4.00;100.00
19005;BME280;9635;52.078;8.648;2023-12-22T14:49:29;98667.34;;;4.15;100.00
19005;BME280;9635;52.078;8.648;2023-12-22T14:54:32;98651.94;;;3.98;100.00
19005;BME280;9635;52.078;8.648;2023-12-22T14:59:35;98642.97;;;4.10;100.00
19005;BME280;9635;52.078;8.648;2023-12-22T15:04:39;98650.34;;;4.06;100.00
19005;BME280;9635;52.078;8.648;2023-12-22T15:09:43;98653.00;;;4.06;100.00
19005;BME280;9635;52.078;8.648;2023-12-22T15:14:47;98652.06;;;3.96;100.00
19005;BME280;9635;52.078;8.648;2023-12-22T15:19:52;98653.94;;;4.16;100.00
19005;BME280;9635;52.078;8.648;2023-12-22T15:24:55;98637.41;;;4.13;100.00
19005;BME280;9635;52.078;8.648;2023-12-22T15:29:58;98657.81;;;4.12;100.00
19005;BME280;9635;52.078;8.648;2023-12-22T15:35:03;98665.44;;;4.06;100.00
19005;BME280;9635;52.078;8.648;2023-12-22T15:40:07;98671.25;;;4.00;100.00
19005;BME280;9635;52.078;8.648;2023-12-22T15:45:12;98669.56;;;3.99;100.00
19005;BME280;9635;52.078;8.648;2023-12-22T15:50:16;98654.69;;;4.07;100.00
19005;BME280;9635;52.078;8.648;2023-12-22T15:55:19;98669.69;;;4.40;100.00
19005;BME280;9635;52.078;8.648;2023-12-22T16:00:22;98693.22;;;4.02;100.00
19005;BME280;9635;52.078;8.648;2023-12-22T16:05:28;98680.28;;;4.08;100.00
19005;BME280;9635;52.078;8.648;2023-12-22T16:10:31;98672.72;;;4.36;100.00
19005;BME280;9635;52.078;8.648;2023-12-22T16:15:34;98643.19;;;4.18;100.00
19005;BME280;9635;52.078;8.648;2023-12-22T16:20:39;98690.97;;;4.29;100.00
19005;BME280;9635;52.078;8.648;2023-12-22T16:25:42;98683.13;;;4.28;100.00
19005;BME280;9635;52.078;8.648;2023-12-22T16:30:45;98661.41;;;4.55;100.00
19005;BME280;9635;52.078;8.648;2023-12-22T16:35:50;98655.91;;;4.68;100.00
19005;BME280;9635;52.078;8.648;2023-12-22T16:40:53;98658.28;;;4.50;100.00
19005;BME280;9635;52.078;8.648;2023-12-22T16:45:57;98686.78;;;4.59;100.00
19005;BME280;9635;52.078;8.648;2023-12-22T16:51:01;98682.09;;;4.51;100.00
19005;BME280;9635;52.078;8.648;2023-12-22T16:56:04;98676.41;;;4.77;100.00
19005;BME280;9635;52.078;8.648;2023-12-22T17:01:07;98680.88;;;4.76;100.00
19005;BME280;9635;52.078;8.648;2023-12-22T17:06:32;98650.00;;;4.85;100.00
19005;BME280;9635;52.078;8.648;2023-12-22T17:11:35;98653.63;;;4.63;100.00
19005;BME280;9635;52.078;8.648;2023-12-22T17:16:38;98640.72;;;4.79;100.00
19005;BME280;9635;52.078;8.648;2023-12-22T17:21:42;98663.03;;;4.88;100.00
19005;BME280;9635;52.078;8.648;2023-12-22T17:26:45;98674.59;;;4.77;100.00
19005;BME280;9635;52.078;8.648;2023-12-22T17:31:49;98659.72;;;4.96;100.00
19005;BME280;9635;52.078;8.648;2023-12-22T17:36:55;98678.84;;;5.22;94.33
19005;BME280;9635;52.078;8.648;2023-12-22T17:41:58;98678.38;;;5.17;91.02
19005;BME280;9635;52.078;8.648;2023-12-22T17:47:01;98693.16;;;5.31;86.69
19005;BME280;9635;52.078;8.648;2023-12-22T17:52:07;98697.59;;;5.20;84.30
19005;BME280;9635;52.078;8.648;2023-12-22T17:57:10;98753.22;;;5.23;86.02
19005;BME280;9635;52.078;8.648;2023-12-22T18:02:15;98737.72;;;4.96;86.27
19005;BME280;9635;52.078;8.648;2023-12-22T18:07:21;98736.63;;;5.10;85.76
19005;BME280;9635;52.078;8.648;2023-12-22T18:12:24;98769.66;;;4.96;86.19
19005;BME280;9635;52.078;8.648;2023-12-22T18:17:27;98769.19;;;5.44;86.87
19005;BME280;9635;52.078;8.648;2023-12-22T18:22:31;98758.63;;;5.33;86.72
19005;BME280;9635;52.078;8.648;2023-12-22T18:27:34;98753.31;;;5.64;86.28
19005;BME280;9635;52.078;8.648;2023-12-22T18:32:37;98762.78;;;5.05;86.97
19005;BME280;9635;52.078;8.648;2023-12-22T18:37:43;98762.84;;;5.36;86.22
19005;BME280;9635;52.078;8.648;2023-12-22T18:42:46;98801.47;;;5.30;85.86
19005;BME280;9635;52.078;8.648;2023-12-22T18:47:49;98825.50;;;5.19;86.04
19005;BME280;9635;52.078;8.648;2023-12-22T18:52:55;98816.34;;;5.33;86.08
19005;BME280;9635;52.078;8.648;2023-12-22T18:57:58;98824.75;;;5.49;86.43
19005;BME280;9635;52.078;8.648;2023-12-22T19:03:01;98836.31;;;5.06;87.28
19005;BME280;9635;52.078;8.648;2023-12-22T19:08:06;98812.72;;;5.55;86.05
19005;BME280;9635;52.078;8.648;2023-12-22T19:13:09;98832.38;;;5.42;87.63
19005;BME280;9635;52.078;8.648;2023-12-22T19:18:12;98824.59;;;4.97;89.59
19005;BME280;9635;52.078;8.648;2023-12-22T19:23:16;98845.88;;;4.97;88.83
19005;BME280;9635;52.078;8.648;2023-12-22T19:28:20;98860.84;;;5.42;89.19
19005;BME280;9635;52.078;8.648;2023-12-22T19:33:23;98851.19;;;4.97;90.30
19005;BME280;9635;52.078;8.648;2023-12-22T19:38:29;98894.53;;;5.32;90.93
19005;BME280;9635;52.078;8.648;2023-12-22T19:43:32;98906.50;;;5.05;97.53
19005;BME280;9635;52.078;8.648;2023-12-22T19:48:35;98919.00;;;5.25;97.02
19005;BME280;9635;52.078;8.648;2023-12-22T19:53:39;98944.91;;;5.23;96.63
19005;BME280;9635;52.078;8.648;2023-12-22T19:58:42;98937.09;;;4.32;100.00
19005;BME280;9635;52.078;8.648;2023-12-22T20:03:45;98958.84;;;5.04;99.51
19005;BME280;9635;52.078;8.648;2023-12-22T20:08:50;98959.72;;;4.94;100.00
19005;BME280;9635;52.078;8.648;2023-12-22T20:13:53;98973.75;;;4.73;100.00
19005;BME280;9635;52.078;8.648;2023-12-22T20:18:57;98979.06;;;4.39;100.00
19005;BME280;9635;52.078;8.648;2023-12-22T20:24:02;98971.66;;;4.32;100.00
19005;BME280;9635;52.078;8.648;2023-12-22T20:29:05;98975.66;;;4.71;100.00
19005;BME280;9635;52.078;8.648;2023-12-22T20:34:09;98979.91;;;4.74;98.51
19005;BME280;9635;52.078;8.648;2023-12-22T20:39:13;98979.66;;;4.77;99.10
19005;BME280;9635;52.078;8.648;2023-12-22T20:44:16;98985.56;;;4.58;100.00
19005;BME280;9635;52.078;8.648;2023-12-22T20:49:20;98986.28;;;4.26;100.00
19005;BME280;9635;52.078;8.648;2023-12-22T20:54:25;99018.59;;;4.55;100.00
19005;BME280;9635;52.078;8.648;2023-12-22T20:59:30;99030.44;;;4.05;100.00
19005;BME280;9635;52.078;8.648;2023-12-22T21:04:36;99007.81;;;4.34;100.00
19005;BME280;9635;52.078;8.648;2023-12-22T21:09:40;99023.34;;;4.28;100.00
19005;BME280;9635;52.078;8.648;2023-12-22T21:14:43;99025.59;;;3.99;100.00
19005;BME280;9635;52.078;8.648;2023-12-22T21:19:51;99055.25;;;4.28;100.00
19005;BME280;9635;52.078;8.648;2023-12-22T21:24:56;99067.63;;;4.40;100.00
19005;BME280;9635;52.078;8.648;2023-12-22T21:29:58;99063.03;;;4.31;100.00
19005;BME280;9635;52.078;8.648;2023-12-22T21:35:02;99060.00;;;4.35;100.00
19005;BME280;9635;52.078;8.648;2023-12-22T21:40:07;99060.13;;;4.34;100.00
19005;BME280;9635;52.078;8.648;2023-12-22T21:45:13;99052.47;;;4.18;100.00
19005;BME280;9635;52.078;8.648;2023-12-22T21:50:18;99073.97;;;4.15;100.00
19005;BME280;9635;52.078;8.648;2023-12-22T21:55:23;99068.19;;;4.21;100.00
19005;BME280;9635;52.078;8.648;2023-12-22T22:00:26;99083.16;;;4.22;100.00
19005;BME280;9635;52.078;8.648;2023-12-22T22:05:31;99089.94;;;4.26;100.00
19005;BME280;9635;52.078;8.648;2023-12-22T22:10:36;99096.16;;;3.79;100.00
19005;BME280;9635;52.078;8.648;2023-12-22T22:15:39;99103.25;;;3.78;100.00
19005;BME280;9635;52.078;8.648;2023-12-22T22:20:42;99133.31;;;3.42;100.00
19005;BME280;9635;52.078;8.648;2023-12-22T22:25:46;99142.91;;;3.06;100.00
19005;BME280;9635;52.078;8.648;2023-12-22T22:30:49;99143.56;;;2.97;100.00
19005;BME280;9635;52.078;8.648;2023-12-22T22:35:52;99155.22;;;3.33;100.00
19005;BME280;9635;52.078;8.648;2023-12-22T22:40:56;99179.31;;;2.91;100.00
19005;BME280;9635;52.078;8.648;2023-12-22T22:46:00;99162.75;;;2.75;100.00
19005;BME280;9635;52.078;8.648;2023-12-22T22:51:03;99214.63;;;2.79;100.00
19005;BME280;9635;52.078;8.648;2023-12-22T22:56:07;99233.81;;;2.82;100.00
19005;BME280;9635;52.078;8.648;2023-12-22T23:01:11;99241.59;;;2.98;100.00
19005;BME280;9635;52.078;8.648;2023-12-22T23:06:16;99256.50;;;2.74;100.00
19005;BME280;9635;52.078;8.648;2023-12-22T23:11:21;99262.50;;;2.63;100.00
19005;BME280;9635;52.078;8.648;2023-12-22T23:16:24;99269.53;;;2.64;100.00
19005;BME280;9635;52.078;8.648;2023-12-22T23:21:27;99283.63;;;2.92;100.00
19005;BME280;9635;52.078;8.648;2023-12-22T23:26:31;99282.38;;;2.70;100.00
19005;BME280;9635;52.078;8.648;2023-12-22T23:31:34;99299.34;;;3.08;100.00
19005;BME280;9635;52.078;8.648;2023-12-22T23:36:37;99303.94;;;3.18;100.00
19005;BME280;9635;52.078;8.648;2023-12-22T23:41:42;99322.03;;;3.64;100.00
19005;BME280;9635;52.078;8.648;2023-12-22T23:46:45;99323.41;;;3.44;100.00
19005;BME280;9635;52.078;8.648;2023-12-22T23:51:48;99350.81;;;4.09;100.00
19005;BME280;9635;52.078;8.648;2023-12-22T23:56:52;99349.00;;;3.97;100.00
